createdAt,value
2018-04-10T00:00:02.028Z,63.60
2018-04-10T00:01:01.952Z,63.80
2018-04-10T00:02:02.028Z,63.51
2018-04-10T00:03:01.974Z,63.42
2018-04-10T00:04:04.100Z,63.32
2018-04-10T00:05:02.020Z,62.94
2018-04-10T00:06:02.066Z,63.60
2018-04-10T00:07:02.031Z,63.03
2018-04-10T00:08:02.076Z,62.84
2018-04-10T00:09:02.053Z,63.51
2018-04-10T00:10:02.092Z,63.13
2018-04-10T00:11:02.079Z,63.03
2018-04-10T00:12:02.201Z,62.94
2018-04-10T00:13:02.109Z,62.94
2018-04-10T00:14:02.220Z,63.13
2018-04-10T00:15:02.143Z,62.65
2018-04-10T00:16:02.235Z,62.65
2018-04-10T00:17:02.187Z,62.94
2018-04-10T00:18:02.251Z,62.59
2018-04-10T00:19:02.188Z,62.55
2018-04-10T00:20:02.259Z,62.40
2018-04-10T00:21:02.220Z,62.49
2018-04-10T00:22:02.272Z,62.59
2018-04-10T00:23:02.232Z,62.40
2018-04-10T00:24:02.290Z,62.77
2018-04-10T00:25:02.268Z,62.49
2018-04-10T00:26:02.306Z,62.30
2018-04-10T00:27:02.327Z,62.20
2018-04-10T00:28:02.430Z,61.54
2018-04-10T00:29:02.327Z,61.82
2018-04-10T00:30:02.433Z,62.11
2018-04-10T00:31:02.351Z,62.11
2018-04-10T00:32:02.448Z,62.20
2018-04-10T00:33:02.372Z,62.30
2018-04-10T00:34:02.461Z,62.30
2018-04-10T00:35:02.404Z,62.68
2018-04-10T00:36:02.487Z,62.68
2018-04-10T00:37:02.421Z,62.77
2018-04-10T00:38:02.442Z,62.40
2018-04-10T00:39:02.457Z,62.30
2018-04-10T00:40:02.512Z,62.20
2018-04-10T00:41:02.484Z,62.49
2018-04-10T00:42:02.531Z,62.49
2018-04-10T00:43:02.506Z,62.87
2018-04-10T00:44:02.630Z,62.68
2018-04-10T00:45:02.563Z,62.97
2018-04-10T00:46:03.301Z,63.16
2018-04-10T00:47:02.591Z,63.03
2018-04-10T00:48:02.670Z,63.03
2018-04-10T00:49:02.589Z,62.94
2018-04-10T00:50:02.681Z,62.94
2018-04-10T00:51:02.614Z,63.06
2018-04-10T00:52:02.692Z,63.23
2018-04-10T00:53:02.634Z,62.97
2018-04-10T00:54:02.713Z,62.97
2018-04-10T00:55:02.661Z,62.87
2018-04-10T00:56:02.724Z,63.06
2018-04-10T00:57:02.689Z,63.35
2018-04-10T00:58:02.734Z,63.16
2018-04-10T00:59:02.728Z,63.35
2018-04-10T01:00:02.757Z,63.54
2018-04-10T01:01:02.740Z,63.35
2018-04-10T01:02:02.864Z,63.45
2018-04-10T01:03:02.776Z,63.42
2018-04-10T01:04:02.878Z,63.83
2018-04-10T01:05:02.806Z,63.64
2018-04-10T01:06:02.891Z,63.64
2018-04-10T01:07:02.820Z,63.26
2018-04-10T01:08:02.906Z,63.64
2018-04-10T01:09:02.851Z,63.16
2018-04-10T01:10:02.921Z,63.06
2018-04-10T01:11:02.869Z,63.26
2018-04-10T01:12:03.019Z,62.87
2018-04-10T01:13:02.891Z,62.77
2018-04-10T01:14:02.931Z,62.40
2018-04-10T01:15:02.923Z,62.59
2018-04-10T01:16:03.051Z,62.68
2018-04-10T01:17:02.950Z,62.49
2018-04-10T01:18:03.061Z,62.68
2018-04-10T01:19:02.975Z,61.91
2018-04-10T01:20:03.074Z,62.14
2018-04-10T01:21:03.006Z,62.43
2018-04-10T01:22:03.092Z,62.43
2018-04-10T01:23:03.038Z,62.11
2018-04-10T01:24:03.101Z,62.33
2018-04-10T01:25:03.061Z,62.62
2018-04-10T01:26:03.116Z,62.49
2018-04-10T01:27:03.106Z,62.49
2018-04-10T01:28:03.130Z,62.49
2018-04-10T01:29:03.112Z,62.40
2018-04-10T01:30:03.247Z,62.52
2018-04-10T01:31:03.131Z,62.52
2018-04-10T01:32:03.259Z,62.81
2018-04-10T01:33:03.180Z,62.87
2018-04-10T01:34:03.275Z,62.68
2018-04-10T01:35:03.180Z,63.29
2018-04-10T01:36:03.303Z,63.26
2018-04-10T01:37:03.225Z,62.90
2018-04-10T01:38:03.310Z,63.10
2018-04-10T01:39:03.241Z,63.64
2018-04-10T01:40:03.313Z,63.96
2018-04-10T01:41:03.266Z,63.83
2018-04-10T01:42:03.328Z,63.93
2018-04-10T01:43:03.289Z,63.83
2018-04-10T01:44:03.339Z,63.93
2018-04-10T01:45:03.367Z,64.22
2018-04-10T01:46:03.349Z,64.40
2018-04-10T01:47:03.340Z,64.50
2018-04-10T01:48:03.467Z,64.31
2018-04-10T01:49:03.374Z,64.69
2018-04-10T01:50:03.488Z,64.98
2018-04-10T01:51:03.396Z,65.08
2018-04-10T01:52:03.496Z,65.08
2018-04-10T01:53:03.438Z,65.55
2018-04-10T01:54:03.515Z,65.26
2018-04-10T01:55:03.445Z,65.26
2018-04-10T01:56:03.522Z,65.55
2018-04-10T01:57:03.468Z,66.22
2018-04-10T01:58:03.537Z,66.03
2018-04-10T01:59:03.496Z,66.32
2018-04-10T02:00:03.546Z,65.65
2018-04-10T02:01:03.523Z,65.74
2018-04-10T02:02:03.569Z,66.32
2018-04-10T02:03:03.552Z,66.51
2018-04-10T02:04:03.678Z,66.51
2018-04-10T02:05:03.582Z,66.51
2018-04-10T02:06:03.694Z,66.41
2018-04-10T02:07:03.606Z,66.41
2018-04-10T02:08:03.708Z,66.86
2018-04-10T02:09:03.649Z,66.86
2018-04-10T02:10:03.722Z,66.61
2018-04-10T02:11:03.658Z,66.61
2018-04-10T02:12:03.733Z,66.61
2018-04-10T02:13:03.676Z,66.41
2018-04-10T02:14:03.751Z,67.08
2018-04-10T02:15:03.705Z,66.89
2018-04-10T02:16:03.761Z,66.89
2018-04-10T02:17:03.731Z,67.34
2018-04-10T02:18:03.771Z,67.34
2018-04-10T02:19:03.776Z,67.53
2018-04-10T02:20:03.784Z,67.63
2018-04-10T02:21:03.789Z,67.82
2018-04-10T02:22:03.904Z,67.82
2018-04-10T02:23:03.810Z,67.43
2018-04-10T02:24:03.921Z,67.53
2018-04-10T02:25:03.845Z,67.34
2018-04-10T02:26:03.928Z,67.53
2018-04-10T02:27:03.860Z,68.01
2018-04-10T02:28:03.939Z,67.63
2018-04-10T02:29:03.890Z,67.91
2018-04-10T02:30:03.950Z,67.82
2018-04-10T02:31:03.916Z,67.63
2018-04-10T02:32:03.960Z,68.20
2018-04-10T02:33:03.934Z,68.10
2018-04-10T02:34:03.978Z,68.20
2018-04-10T02:35:03.970Z,68.01
2018-04-10T02:36:04.096Z,68.49
2018-04-10T02:37:03.992Z,68.10
2018-04-10T02:38:04.109Z,68.29
2018-04-10T02:39:04.016Z,68.10
2018-04-10T02:40:04.118Z,68.29
2018-04-10T02:41:04.053Z,68.29
2018-04-10T02:42:04.132Z,68.29
2018-04-10T02:43:04.073Z,68.49
2018-04-10T02:44:04.153Z,68.10
2018-04-10T02:45:04.087Z,68.10
2018-04-10T02:46:04.165Z,68.39
2018-04-10T02:47:04.117Z,68.10
2018-04-10T02:48:04.168Z,68.10
2018-04-10T02:49:04.144Z,68.29
2018-04-10T02:50:04.187Z,68.20
2018-04-10T02:51:04.177Z,68.29
2018-04-10T02:52:04.305Z,68.39
2018-04-10T02:53:04.197Z,68.49
2018-04-10T02:54:04.317Z,68.39
2018-04-10T02:55:04.222Z,68.10
2018-04-10T02:56:04.330Z,68.29
2018-04-10T02:57:04.249Z,68.77
2018-04-10T02:58:04.344Z,68.20
2018-04-10T02:59:04.274Z,68.39
2018-04-10T03:00:04.355Z,68.77
2018-04-10T03:01:04.298Z,68.68
2018-04-10T03:02:04.368Z,68.45
2018-04-10T03:03:04.324Z,68.84
2018-04-10T03:04:04.387Z,69.02
2018-04-10T03:05:04.347Z,69.41
2018-04-10T03:06:04.402Z,69.41
2018-04-10T03:07:04.376Z,69.60
2018-04-10T03:08:04.411Z,69.60
2018-04-10T03:09:04.404Z,69.70
2018-04-10T03:10:04.526Z,70.07
2018-04-10T03:11:04.431Z,70.36
2018-04-10T03:12:04.542Z,69.89
2018-04-10T03:13:04.470Z,70.36
2018-04-10T03:14:04.556Z,70.07
2018-04-10T03:15:04.486Z,70.46
2018-04-10T03:16:04.564Z,69.98
2018-04-10T03:17:04.502Z,70.27
2018-04-10T03:18:04.582Z,70.27
2018-04-10T03:19:04.532Z,70.46
2018-04-10T03:20:04.595Z,70.56
2018-04-10T03:21:04.553Z,70.27
2018-04-10T03:22:04.610Z,70.46
2018-04-10T03:23:04.583Z,70.56
2018-04-10T03:24:04.626Z,70.65
2018-04-10T03:25:04.620Z,70.75
2018-04-10T03:26:04.638Z,70.75
2018-04-10T03:27:04.641Z,71.22
2018-04-10T03:28:04.750Z,71.13
2018-04-10T03:29:04.657Z,71.13
2018-04-10T03:30:04.768Z,71.32
2018-04-10T03:31:04.683Z,71.03
2018-04-10T03:32:04.777Z,70.84
2018-04-10T03:33:04.707Z,71.13
2018-04-10T03:34:04.800Z,71.13
2018-04-10T03:35:04.737Z,71.47
2018-04-10T03:36:04.803Z,71.61
2018-04-10T03:37:04.753Z,71.57
2018-04-10T03:38:04.821Z,71.13
2018-04-10T03:39:04.787Z,71.38
2018-04-10T03:40:04.842Z,71.89
2018-04-10T03:41:04.809Z,71.76
2018-04-10T03:42:04.848Z,71.42
2018-04-10T03:43:04.840Z,71.86
2018-04-10T03:44:04.865Z,71.67
2018-04-10T03:45:04.864Z,72.28
2018-04-10T03:46:04.982Z,71.95
2018-04-10T03:47:04.892Z,72.14
2018-04-10T03:48:05.028Z,72.43
2018-04-10T03:49:04.913Z,72.53
2018-04-10T03:50:05.034Z,72.62
2018-04-10T03:51:04.944Z,72.62
2018-04-10T03:52:05.020Z,72.72
2018-04-10T03:53:05.003Z,73.29
2018-04-10T03:54:05.072Z,73.29
2018-04-10T03:55:04.992Z,73.29
2018-04-10T03:56:05.048Z,73.29
2018-04-10T03:57:05.015Z,73.77
2018-04-10T03:58:05.063Z,73.00
2018-04-10T03:59:05.050Z,73.29
2018-04-10T04:00:05.083Z,73.58
2018-04-10T04:01:05.064Z,73.86
2018-04-10T04:02:05.203Z,73.73
2018-04-10T04:03:05.097Z,74.02
2018-04-10T04:04:05.221Z,74.59
2018-04-10T04:05:05.121Z,74.49
2018-04-10T04:06:05.145Z,74.69
2018-04-10T04:07:05.247Z,74.59
2018-04-10T04:08:05.163Z,74.49
2018-04-10T04:09:05.239Z,74.98
2018-04-10T04:10:05.190Z,74.78
2018-04-10T04:11:05.252Z,75.16
2018-04-10T04:12:05.204Z,74.88
2018-04-10T04:13:05.309Z,74.88
2018-04-10T04:14:05.231Z,74.88
2018-04-10T04:15:05.298Z,74.69
2018-04-10T04:16:05.259Z,75.16
2018-04-10T04:17:05.301Z,75.35
2018-04-10T04:18:05.286Z,75.54
2018-04-10T04:19:05.327Z,75.54
2018-04-10T04:20:05.314Z,75.45
2018-04-10T04:21:05.422Z,76.03
2018-04-10T04:22:05.335Z,75.79
2018-04-10T04:23:05.444Z,76.12
2018-04-10T04:24:05.352Z,76.18
2018-04-10T04:25:05.458Z,76.21
2018-04-10T04:26:05.423Z,76.18
2018-04-10T04:27:05.470Z,76.31
2018-04-10T04:28:05.405Z,76.65
2018-04-10T04:29:05.510Z,76.94
2018-04-10T04:30:05.430Z,76.79
2018-04-10T04:31:05.496Z,77.03
2018-04-10T04:32:05.487Z,77.32
2018-04-10T04:33:05.511Z,77.32
2018-04-10T04:34:05.480Z,77.70
2018-04-10T04:35:05.521Z,77.89
2018-04-10T04:36:05.502Z,76.94
2018-04-10T04:37:05.641Z,77.13
2018-04-10T04:38:05.534Z,77.80
2018-04-10T04:39:05.663Z,77.23
2018-04-10T04:40:05.556Z,77.51
2018-04-10T04:41:05.664Z,77.99
2018-04-10T04:42:05.580Z,77.61
2018-04-10T04:43:05.677Z,78.09
2018-04-10T04:44:05.631Z,78.09
2018-04-10T04:45:05.690Z,78.28
2018-04-10T04:46:05.631Z,78.09
2018-04-10T04:47:05.704Z,77.99
2018-04-10T04:48:05.655Z,78.28
2018-04-10T04:49:05.718Z,78.28
2018-04-10T04:50:05.683Z,78.37
2018-04-10T04:51:05.738Z,78.56
2018-04-10T04:52:05.708Z,78.85
2018-04-10T04:53:05.744Z,78.47
2018-04-10T04:54:05.733Z,78.43
2018-04-10T04:55:05.768Z,79.52
2018-04-10T04:56:05.752Z,79.00
2018-04-10T04:57:05.888Z,79.00
2018-04-10T04:58:05.783Z,79.00
2018-04-10T04:59:05.890Z,78.81
2018-04-10T05:00:05.808Z,79.38
2018-04-10T05:01:05.900Z,79.38
2018-04-10T05:02:05.830Z,79.38
2018-04-10T05:03:05.915Z,79.57
2018-04-10T05:04:05.857Z,79.57
2018-04-10T05:05:05.926Z,79.96
2018-04-10T05:06:05.885Z,79.67
2018-04-10T05:07:05.959Z,79.67
2018-04-10T05:08:05.905Z,79.77
2018-04-10T05:09:05.952Z,80.05
2018-04-10T05:10:05.930Z,80.05
2018-04-10T05:11:05.967Z,80.05
2018-04-10T05:12:06.036Z,80.53
2018-04-10T05:13:05.980Z,80.81
2018-04-10T05:14:06.011Z,80.43
2018-04-10T05:15:06.099Z,80.62
2018-04-10T05:16:06.012Z,80.53
2018-04-10T05:17:06.109Z,80.72
2018-04-10T05:18:06.036Z,80.53
2018-04-10T05:19:06.122Z,80.38
2018-04-10T05:20:06.052Z,80.57
2018-04-10T05:21:06.135Z,79.90
2018-04-10T05:22:06.071Z,79.61
2018-04-10T05:23:06.150Z,79.99
2018-04-10T05:24:06.109Z,80.09
2018-04-10T05:25:06.164Z,79.52
2018-04-10T05:26:06.125Z,79.43
2018-04-10T05:27:06.177Z,79.71
2018-04-10T05:28:06.191Z,79.80
2018-04-10T05:29:06.203Z,79.04
2018-04-10T05:30:06.190Z,79.23
2018-04-10T05:31:06.313Z,79.23
2018-04-10T05:32:06.209Z,78.94
2018-04-10T05:33:06.350Z,79.04
2018-04-10T05:34:06.281Z,79.04
2018-04-10T05:35:06.340Z,79.43
2018-04-10T05:36:06.329Z,79.52
2018-04-10T05:37:06.353Z,79.61
2018-04-10T05:38:06.274Z,79.43
2018-04-10T05:39:06.398Z,79.52
2018-04-10T05:40:06.308Z,79.80
2018-04-10T05:41:06.382Z,79.52
2018-04-10T05:42:06.336Z,79.61
2018-04-10T05:43:06.466Z,79.43
2018-04-10T05:44:06.356Z,79.52
2018-04-10T05:45:06.530Z,79.43
2018-04-10T05:46:06.398Z,79.33
2018-04-10T05:47:06.522Z,79.52
2018-04-10T05:48:06.491Z,79.61
2018-04-10T05:49:06.506Z,78.56
2018-04-10T05:50:06.430Z,79.43
2018-04-10T05:51:06.522Z,79.23
2018-04-10T05:52:06.452Z,79.52
2018-04-10T05:53:06.646Z,79.04
2018-04-10T05:54:06.485Z,79.04
2018-04-10T05:55:06.562Z,79.14
2018-04-10T05:56:06.498Z,78.85
2018-04-10T05:57:06.665Z,79.33
2018-04-10T05:58:06.527Z,79.04
2018-04-10T05:59:06.588Z,78.85
2018-04-10T06:00:06.558Z,78.66
2018-04-10T06:01:06.702Z,78.56
2018-04-10T06:02:06.584Z,78.51
2018-04-10T06:03:06.717Z,78.89
2018-04-10T06:04:06.606Z,78.51
2018-04-10T06:05:06.722Z,78.51
2018-04-10T06:06:06.634Z,77.84
2018-04-10T06:07:06.735Z,77.65
2018-04-10T06:08:06.652Z,78.22
2018-04-10T06:09:06.752Z,78.03
2018-04-10T06:10:06.668Z,77.84
2018-04-10T06:11:06.782Z,77.55
2018-04-10T06:12:06.729Z,77.36
2018-04-10T06:13:06.774Z,77.08
2018-04-10T06:14:06.720Z,76.79
2018-04-10T06:15:06.795Z,76.79
2018-04-10T06:16:06.754Z,76.50
2018-04-10T06:17:06.809Z,76.73
2018-04-10T06:18:06.777Z,77.21
2018-04-10T06:19:06.924Z,77.21
2018-04-10T06:20:06.798Z,77.21
2018-04-10T06:21:06.937Z,76.45
2018-04-10T06:22:06.830Z,76.35
2018-04-10T06:23:06.951Z,76.54
2018-04-10T06:24:06.861Z,76.35
2018-04-10T06:25:06.968Z,76.54
2018-04-10T06:26:06.869Z,76.54
2018-04-10T06:27:06.980Z,75.78
2018-04-10T06:28:06.897Z,75.39
2018-04-10T06:29:07.000Z,76.35
2018-04-10T06:30:06.920Z,75.59
2018-04-10T06:31:07.009Z,75.43
2018-04-10T06:32:06.946Z,75.30
2018-04-10T06:33:07.016Z,74.95
2018-04-10T06:34:06.974Z,74.95
2018-04-10T06:35:07.032Z,75.34
2018-04-10T06:36:07.001Z,75.14
2018-04-10T06:37:07.187Z,73.99
2018-04-10T06:38:07.021Z,74.76
2018-04-10T06:39:07.184Z,74.66
2018-04-10T06:40:07.064Z,74.48
2018-04-10T06:41:07.177Z,73.99
2018-04-10T06:42:07.080Z,74.76
2018-04-10T06:43:07.189Z,74.95
2018-04-10T06:44:42.625Z,75.18
2018-04-10T06:45:42.589Z,74.51
2018-04-10T06:46:42.522Z,74.32
2018-04-10T06:47:42.520Z,74.51
2018-04-10T06:48:42.502Z,74.51
2018-04-10T06:49:42.438Z,74.51
2018-04-10T06:50:42.418Z,74.13
2018-04-10T06:51:42.403Z,73.75
2018-04-10T06:52:42.419Z,73.65
2018-04-10T06:53:42.351Z,73.36
2018-04-10T06:54:42.335Z,73.08
2018-04-10T06:55:42.288Z,73.17
2018-04-10T06:56:42.269Z,73.36
2018-04-10T06:57:42.241Z,73.36
2018-04-10T06:58:42.237Z,71.68
2018-04-10T06:59:42.387Z,71.77
2018-04-10T07:00:42.165Z,71.48
2018-04-10T07:01:42.158Z,71.68
2018-04-10T07:02:42.118Z,71.58
2018-04-10T07:03:42.135Z,71.11
2018-04-10T07:04:42.090Z,71.48
2018-04-10T07:05:42.155Z,71.58
2018-04-10T07:06:42.025Z,71.20
2018-04-10T07:07:42.048Z,70.53
2018-04-10T07:08:44.090Z,69.67
2018-04-10T07:09:41.989Z,69.60
2018-04-10T07:10:42.065Z,69.13
2018-04-10T07:11:41.916Z,68.94
2018-04-10T07:12:42.082Z,68.55
2018-04-10T07:13:41.854Z,68.17
2018-04-10T07:14:43.939Z,68.36
2018-04-10T07:15:41.864Z,67.60
2018-04-10T07:16:41.914Z,68.07
2018-04-10T07:17:41.774Z,67.60
2018-04-10T07:18:42.829Z,67.88
2018-04-10T07:19:41.729Z,67.79
2018-04-10T07:20:53.826Z,67.54
2018-04-10T07:21:41.668Z,66.77
2018-04-10T07:22:41.751Z,66.77
2018-04-10T07:23:41.655Z,66.00
2018-04-10T07:24:41.671Z,66.09
2018-04-10T07:25:41.580Z,66.58
2018-04-10T07:26:42.617Z,66.77
2018-04-10T07:27:41.535Z,66.67
2018-04-10T07:28:41.577Z,67.44
2018-04-10T07:29:41.501Z,66.09
2018-04-10T07:30:41.477Z,66.96
2018-04-10T07:31:41.486Z,66.77
2018-04-10T07:32:41.508Z,66.48
2018-04-10T07:33:41.375Z,66.86
2018-04-10T07:34:41.399Z,67.82
2018-04-10T07:35:41.365Z,67.91
2018-04-10T07:36:41.430Z,67.44
2018-04-10T07:37:41.316Z,67.91
2018-04-10T07:38:43.390Z,67.91
2018-04-10T07:39:41.273Z,67.91
2018-04-10T07:40:41.335Z,67.25
2018-04-10T07:41:41.189Z,67.91
2018-04-10T07:42:41.288Z,66.38
2018-04-10T07:43:41.145Z,66.86
2018-04-10T07:44:41.150Z,66.19
2018-04-10T07:45:41.140Z,66.38
2018-04-10T07:46:41.060Z,66.29
2018-04-10T07:47:41.069Z,66.96
2018-04-10T07:48:41.026Z,65.75
2018-04-10T07:49:41.078Z,65.62
2018-04-10T07:50:40.982Z,65.75
2018-04-10T07:51:41.023Z,66.13
2018-04-10T07:52:40.920Z,65.52
2018-04-10T07:53:41.004Z,65.65
2018-04-10T07:54:40.871Z,65.94
2018-04-10T07:55:40.921Z,66.03
2018-04-10T07:56:40.842Z,65.36
2018-04-10T07:57:40.829Z,64.79
2018-04-10T07:58:40.771Z,65.17
2018-04-10T07:59:40.843Z,64.69
2018-04-10T08:00:40.770Z,64.89
2018-04-10T08:01:40.758Z,64.50
2018-04-10T08:02:40.691Z,64.50
2018-04-10T08:03:40.640Z,64.69
2018-04-10T08:04:40.657Z,64.50
2018-04-10T08:05:40.681Z,64.31
2018-04-10T08:06:40.660Z,64.59
2018-04-10T08:07:40.584Z,64.79
2018-04-10T08:08:40.532Z,64.69
2018-04-10T08:09:40.514Z,64.02
2018-04-10T08:10:40.490Z,65.17
2018-04-10T08:11:40.506Z,64.59
2018-04-10T08:12:40.441Z,64.31
2018-04-10T08:13:40.523Z,64.31
2018-04-10T08:14:40.393Z,64.22
2018-04-10T08:15:40.436Z,63.57
2018-04-10T08:16:40.334Z,64.15
2018-04-10T08:17:40.462Z,64.34
2018-04-10T08:18:40.280Z,64.72
2018-04-10T08:19:40.359Z,63.67
2018-04-10T08:20:40.237Z,63.09
2018-04-10T08:21:40.268Z,63.09
2018-04-10T08:22:40.218Z,62.90
2018-04-10T08:23:40.184Z,62.71
2018-04-10T08:24:40.146Z,62.04
2018-04-10T08:25:40.208Z,62.33
2018-04-10T08:26:40.092Z,63.67
2018-04-10T08:27:40.108Z,63.51
2018-04-10T08:28:40.066Z,62.93
2018-04-10T08:29:40.119Z,63.32
2018-04-10T08:30:40.023Z,62.07
2018-04-10T08:31:41.056Z,60.92
2018-04-10T08:32:39.957Z,60.92
2018-04-10T08:33:39.926Z,61.62
2018-04-10T08:34:39.939Z,60.44
2018-04-10T08:35:39.880Z,60.53
2018-04-10T08:36:39.961Z,60.82
2018-04-10T08:37:39.858Z,60.72
2018-04-10T08:38:39.892Z,60.72
2018-04-10T08:39:39.797Z,61.30
2018-04-10T08:40:39.884Z,61.69
2018-04-10T08:41:39.734Z,60.25
2018-04-10T08:42:39.828Z,60.82
2018-04-10T08:43:39.726Z,60.53
2018-04-10T08:44:39.717Z,60.05
2018-04-10T08:45:39.645Z,59.96
2018-04-10T08:46:39.728Z,60.08
2018-04-10T08:47:39.601Z,59.80
2018-04-10T08:48:39.651Z,58.84
2018-04-10T08:49:39.566Z,58.84
2018-04-10T08:50:39.649Z,58.39
2018-04-10T08:51:39.504Z,57.81
2018-04-10T08:52:39.580Z,57.97
2018-04-10T08:53:39.455Z,58.39
2018-04-10T08:54:39.577Z,58.26
2018-04-10T08:55:39.404Z,58.29
2018-04-10T08:56:39.501Z,57.33
2018-04-10T08:57:39.353Z,57.04
2018-04-10T08:58:39.397Z,57.04
2018-04-10T08:59:39.313Z,59.03
2018-04-10T09:00:39.408Z,58.29
2018-04-10T09:01:39.280Z,58.48
2018-04-10T09:02:39.334Z,58.39
2018-04-10T09:03:39.220Z,58.20
2018-04-10T09:04:39.340Z,57.14
2018-04-10T09:05:39.217Z,57.26
2018-04-10T09:06:39.260Z,57.17
2018-04-10T09:07:39.135Z,56.46
2018-04-10T09:08:39.109Z,58.20
2018-04-10T09:09:39.083Z,57.07
2018-04-10T09:10:39.141Z,56.76
2018-04-10T09:11:39.061Z,56.37
2018-04-10T09:12:39.046Z,58.10
2018-04-10T09:13:38.996Z,58.32
2018-04-10T09:14:39.054Z,58.32
2018-04-10T09:15:38.940Z,57.55
2018-04-10T09:16:38.967Z,58.32
2018-04-10T09:17:38.912Z,57.10
2018-04-10T09:18:38.997Z,54.99
2018-04-10T09:19:38.843Z,55.08
2018-04-10T09:20:38.890Z,55.56
2018-04-10T09:21:38.826Z,55.08
2018-04-10T09:22:39.824Z,56.14
2018-04-10T09:23:38.748Z,55.27
2018-04-10T09:24:39.830Z,54.69
2018-04-10T09:25:38.706Z,54.31
2018-04-10T09:26:39.748Z,55.27
2018-04-10T09:27:38.665Z,55.18
2018-04-10T09:28:38.738Z,54.99
2018-04-10T09:29:38.622Z,54.79
2018-04-10T09:30:38.706Z,54.12
2018-04-10T09:31:38.569Z,54.02
2018-04-10T09:32:38.601Z,53.57
2018-04-10T09:33:38.515Z,53.86
2018-04-10T09:34:38.613Z,54.14
2018-04-10T09:35:38.469Z,53.96
2018-04-10T09:36:38.559Z,52.99
2018-04-10T09:37:38.427Z,54.34
2018-04-10T09:38:38.551Z,54.91
2018-04-10T09:39:38.380Z,54.63
2018-04-10T09:40:38.467Z,53.96
2018-04-10T09:41:38.374Z,53.69
2018-04-10T09:42:38.307Z,52.34
2018-04-10T09:43:38.327Z,53.02
2018-04-10T09:44:38.288Z,52.34
2018-04-10T09:45:38.265Z,52.63
2018-04-10T09:46:38.249Z,51.57
2018-04-10T09:47:38.197Z,51.86
2018-04-10T09:48:38.183Z,52.06
2018-04-10T09:49:38.171Z,51.76
2018-04-10T09:50:38.141Z,52.54
2018-04-10T09:51:38.153Z,52.54
2018-04-10T09:52:38.107Z,52.15
2018-04-10T09:53:38.159Z,50.61
2018-04-10T09:54:38.051Z,50.04
2018-04-10T09:55:38.045Z,50.54
2018-04-10T09:56:38.215Z,50.54
2018-04-10T09:57:38.019Z,51.60
2018-04-10T09:58:37.970Z,49.58
2018-04-10T09:59:37.954Z,49.94
2018-04-10T10:00:37.932Z,48.97
2018-04-10T10:01:37.904Z,48.79
2018-04-10T10:02:37.864Z,49.63
2018-04-10T10:03:37.841Z,50.78
2018-04-10T10:04:37.836Z,52.32
2018-04-10T10:05:37.934Z,51.57
2018-04-10T10:06:37.788Z,50.61
2018-04-10T10:07:37.742Z,48.40
2018-04-10T10:08:37.744Z,48.69
2018-04-10T10:09:38.875Z,48.11
2018-04-10T10:10:37.694Z,47.63
2018-04-10T10:11:37.652Z,48.61
2018-04-10T10:12:37.646Z,47.36
2018-04-10T10:13:37.614Z,46.98
2018-04-10T10:14:38.685Z,45.15
2018-04-10T10:15:37.618Z,44.96
2018-04-10T10:16:37.685Z,46.31
2018-04-10T10:17:37.534Z,46.40
2018-04-10T10:18:37.525Z,47.92
2018-04-10T10:19:37.562Z,48.49
2018-04-10T10:20:37.481Z,48.02
2018-04-10T10:21:37.656Z,50.71
2018-04-10T10:22:37.422Z,49.07
2018-04-10T10:23:37.416Z,49.07
2018-04-10T10:24:37.376Z,51.09
2018-04-10T10:25:37.355Z,49.19
2018-04-10T10:26:37.335Z,45.73
2018-04-10T10:27:37.314Z,45.61
2018-04-10T10:28:37.293Z,45.90
2018-04-10T10:29:37.337Z,47.36
2018-04-10T10:30:37.270Z,48.71
2018-04-10T10:31:37.240Z,48.21
2018-04-10T10:32:37.208Z,48.33
2018-04-10T10:33:37.187Z,48.90
2018-04-10T10:34:37.161Z,48.33
2018-04-10T10:35:37.160Z,47.77
2018-04-10T10:36:37.111Z,47.19
2018-04-10T10:37:37.086Z,45.94
2018-04-10T10:38:37.064Z,45.56
2018-04-10T10:39:37.068Z,46.01
2018-04-10T10:40:37.021Z,46.21
2018-04-10T10:41:36.987Z,47.46
2018-04-10T10:42:37.056Z,47.75
2018-04-10T10:43:36.956Z,48.30
2018-04-10T10:44:36.920Z,48.79
2018-04-10T10:45:36.901Z,49.07
2018-04-10T10:46:36.872Z,48.97
2018-04-10T10:47:36.855Z,49.07
2018-04-10T10:48:36.848Z,48.11
2018-04-10T10:49:36.819Z,47.92
2018-04-10T10:50:36.789Z,49.07
2018-04-10T10:51:36.770Z,48.40
2018-04-10T10:52:36.751Z,47.15
2018-04-10T10:53:36.727Z,47.34
2018-04-10T10:54:36.816Z,46.95
2018-04-10T10:55:36.680Z,47.05
2018-04-10T10:56:36.665Z,46.77
2018-04-10T10:57:36.650Z,47.05
2018-04-10T10:58:36.651Z,47.15
2018-04-10T10:59:36.609Z,48.11
2018-04-10T11:00:36.804Z,47.82
2018-04-10T11:01:36.546Z,47.82
2018-04-10T11:02:36.655Z,48.02
2018-04-10T11:03:36.514Z,46.95
2018-04-10T11:04:36.611Z,48.02
2018-04-10T11:05:36.461Z,47.05
2018-04-10T11:06:36.599Z,46.95
2018-04-10T11:07:36.426Z,45.51
2018-04-10T11:08:36.499Z,44.74
2018-04-10T11:09:36.399Z,44.84
2018-04-10T11:10:36.525Z,45.42
2018-04-10T11:11:36.322Z,44.76
2018-04-10T11:12:36.420Z,44.28
2018-04-10T11:13:36.278Z,45.53
2018-04-10T11:14:36.451Z,45.25
2018-04-10T11:15:36.249Z,46.01
2018-04-10T11:16:36.348Z,46.59
2018-04-10T11:17:36.202Z,46.21
2018-04-10T11:18:36.374Z,45.80
2018-04-10T11:19:36.223Z,46.19
2018-04-10T11:20:36.318Z,45.42
2018-04-10T11:21:36.112Z,46.47
2018-04-10T11:22:36.348Z,46.47
2018-04-10T11:23:36.067Z,46.67
2018-04-10T11:24:36.211Z,46.47
2018-04-10T11:25:36.006Z,46.86
2018-04-10T11:26:36.114Z,47.34
2018-04-10T11:27:35.975Z,45.99
2018-04-10T11:28:36.117Z,47.05
2018-04-10T11:29:35.932Z,47.17
2018-04-10T11:30:36.083Z,46.69
2018-04-10T11:31:35.881Z,46.31
2018-04-10T11:32:36.970Z,46.69
2018-04-10T11:33:35.854Z,46.98
2018-04-10T11:34:35.955Z,46.01
2018-04-10T11:35:35.817Z,45.92
2018-04-10T11:36:36.003Z,45.92
2018-04-10T11:37:35.754Z,46.19
2018-04-10T11:38:35.886Z,46.57
2018-04-10T11:39:35.713Z,47.27
2018-04-10T11:40:35.807Z,47.17
2018-04-10T11:41:35.678Z,46.59
2018-04-10T11:42:35.815Z,46.59
2018-04-10T11:43:35.676Z,46.98
2018-04-10T11:44:35.747Z,46.78
2018-04-10T11:45:35.648Z,47.08
2018-04-10T11:46:35.754Z,45.34
2018-04-10T11:47:35.547Z,45.92
2018-04-10T11:48:35.651Z,45.15
2018-04-10T11:49:35.504Z,45.07
2018-04-10T11:50:35.701Z,44.76
2018-04-10T11:51:35.568Z,43.99
2018-04-10T11:52:35.585Z,44.09
2018-04-10T11:53:35.411Z,43.24
2018-04-10T11:54:35.586Z,42.55
2018-04-10T11:55:35.411Z,41.97
2018-04-10T11:56:35.489Z,42.57
2018-04-10T11:57:35.310Z,41.80
2018-04-10T11:58:35.734Z,41.99
2018-04-10T11:59:35.304Z,41.89
2018-04-10T12:00:35.417Z,41.68
2018-04-10T12:01:35.244Z,42.19
2018-04-10T12:02:35.328Z,41.51
2018-04-10T12:03:35.227Z,42.09
2018-04-10T12:04:35.338Z,43.05
2018-04-10T12:05:35.134Z,42.28
2018-04-10T12:06:35.301Z,43.24
2018-04-10T12:07:35.112Z,43.44
2018-04-10T12:08:35.276Z,43.54
2018-04-10T12:09:35.136Z,42.76
2018-04-10T12:10:35.177Z,43.05
2018-04-10T12:11:35.015Z,43.44
2018-04-10T12:12:35.208Z,43.63
2018-04-10T12:13:34.966Z,43.34
2018-04-10T12:14:35.123Z,43.73
2018-04-10T12:15:34.936Z,44.49
2018-04-10T12:16:34.938Z,44.02
2018-04-10T12:17:34.880Z,43.73
2018-04-10T12:18:34.870Z,44.02
2018-04-10T12:19:34.827Z,44.59
2018-04-10T12:20:34.834Z,45.07
2018-04-10T12:21:34.798Z,45.20
2018-04-10T12:22:34.779Z,45.00
2018-04-10T12:23:34.743Z,45.20
2018-04-10T12:24:34.717Z,46.64
2018-04-10T12:25:34.736Z,45.87
2018-04-10T12:26:34.681Z,45.48
2018-04-10T12:27:34.663Z,45.97
2018-04-10T12:28:34.640Z,46.73
2018-04-10T12:29:34.627Z,45.58
2018-04-10T12:30:34.642Z,45.20
2018-04-10T12:31:34.578Z,46.15
2018-04-10T12:32:34.564Z,45.68
2018-04-10T12:33:34.528Z,45.97
2018-04-10T12:34:34.511Z,46.55
2018-04-10T12:35:34.493Z,46.83
2018-04-10T12:36:34.488Z,46.83
2018-04-10T12:37:34.464Z,46.93
2018-04-10T12:38:34.429Z,46.64
2018-04-10T12:39:34.408Z,45.87
2018-04-10T12:40:34.385Z,45.97
2018-04-10T12:41:34.363Z,46.15
2018-04-10T12:42:34.345Z,46.06
2018-04-10T12:43:34.319Z,46.25
2018-04-10T12:44:34.396Z,45.77
2018-04-10T12:45:34.280Z,45.68
2018-04-10T12:46:34.258Z,45.97
2018-04-10T12:47:34.240Z,45.87
2018-04-10T12:48:34.218Z,46.25
2018-04-10T12:49:34.200Z,45.87
2018-04-10T12:50:34.171Z,45.48
2018-04-10T12:51:34.190Z,45.58
2018-04-10T12:52:34.120Z,44.52